createdAt,value
2023-03-22T00:01:22.864Z,95934.66
2023-03-22T00:03:57.865Z,95938.03
2023-03-22T00:06:26.909Z,95942.94
2023-03-22T00:08:56.016Z,95936.50
2023-03-22T00:11:26.076Z,95934.44
2023-03-22T00:14:16.730Z,95924.13
2023-03-22T00:16:46.580Z,95928.22
2023-03-22T00:19:18.078Z,95929.59
2023-03-22T00:21:46.960Z,95928.59
2023-03-22T00:24:15.635Z,95924.09
2023-03-22T00:26:47.575Z,95914.72
2023-03-22T00:29:16.292Z,95908.78
2023-03-22T00:31:45.237Z,95921.44
2023-03-22T00:34:14.342Z,95918.75
2023-03-22T00:36:43.122Z,95908.78
2023-03-22T00:39:12.108Z,95916.31
2023-03-22T00:41:40.769Z,95916.09
2023-03-22T00:44:10.716Z,95926.09
2023-03-22T00:46:39.719Z,95912.66
2023-03-22T00:49:08.313Z,95913.44
2023-03-22T00:51:37.204Z,95904.66
2023-03-22T00:54:07.278Z,95908.16
2023-03-22T00:56:37.855Z,95908.03
2023-03-22T00:59:06.584Z,95905.25
2023-03-22T01:01:37.245Z,95901.56
2023-03-22T01:04:06.395Z,95908.88
2023-03-22T01:06:35.834Z,95900.53
2023-03-22T01:09:05.189Z,95904.59
2023-03-22T01:11:33.735Z,95902.97
2023-03-22T01:14:02.665Z,95895.47
2023-03-22T01:16:34.032Z,95899.56
2023-03-22T01:19:04.307Z,95893.50
2023-03-22T01:21:33.447Z,95892.38
2023-03-22T01:24:02.089Z,95892.28
2023-03-22T01:26:30.744Z,95883.59
2023-03-22T01:28:59.802Z,95890.31
2023-03-22T01:31:28.859Z,95881.72
2023-03-22T01:33:57.441Z,95880.72
2023-03-22T01:36:28.066Z,95877.34
2023-03-22T01:38:56.927Z,95878.63
2023-03-22T01:41:26.151Z,95870.97
2023-03-22T01:44:12.642Z,95878.53
2023-03-22T01:46:41.244Z,95870.28
2023-03-22T01:49:12.964Z,95875.06
2023-03-22T01:51:46.092Z,95872.72
2023-03-22T01:54:19.582Z,95872.72
2023-03-22T01:57:04.510Z,95879.13
2023-03-22T01:59:33.415Z,95876.34
2023-03-22T02:02:02.933Z,95873.91
2023-03-22T02:04:34.680Z,95873.19
2023-03-22T02:07:10.270Z,95871.69
2023-03-22T02:09:41.706Z,95870.75
2023-03-22T02:12:18.594Z,95869.03
2023-03-22T02:14:57.587Z,95873.91
2023-03-22T02:17:32.517Z,95877.16
2023-03-22T02:20:33.433Z,95876.94
2023-03-22T02:23:42.728Z,95872.66
2023-03-22T02:26:47.294Z,95873.47
2023-03-22T02:29:22.485Z,95871.72
2023-03-22T02:32:05.890Z,95866.59
2023-03-22T02:34:57.287Z,95855.72
2023-03-22T02:37:41.943Z,95858.75
2023-03-22T02:40:15.216Z,95865.81
2023-03-22T02:42:51.807Z,95865.22
2023-03-22T02:45:27.923Z,95860.44
2023-03-22T02:48:00.994Z,95863.81
2023-03-22T02:50:33.286Z,95860.34
2023-03-22T02:53:06.022Z,95854.53
2023-03-22T02:55:39.831Z,95854.31
2023-03-22T02:58:12.801Z,95858.00
2023-03-22T03:00:42.144Z,95846.75
2023-03-22T03:03:15.277Z,95857.56
2023-03-22T03:05:46.517Z,95851.97
2023-03-22T03:08:17.429Z,95856.16
2023-03-22T03:10:51.140Z,95852.75
2023-03-22T03:13:20.804Z,95861.25
2023-03-22T03:15:57.464Z,95861.25
2023-03-22T03:18:48.008Z,95858.69
2023-03-22T03:21:25.753Z,95858.59
2023-03-22T03:24:00.591Z,95855.91
2023-03-22T03:26:45.015Z,95859.16
2023-03-22T03:29:23.033Z,95855.72
2023-03-22T03:31:56.083Z,95857.34
2023-03-22T03:34:27.644Z,95848.06
2023-03-22T03:37:00.242Z,95860.22
2023-03-22T03:39:34.792Z,95858.59
2023-03-22T03:42:05.846Z,95859.75
2023-03-22T03:44:36.090Z,95858.44
2023-03-22T03:47:05.442Z,95853.66
2023-03-22T03:49:34.344Z,95855.72
2023-03-22T03:52:03.183Z,95865.03
2023-03-22T03:54:31.636Z,95866.16
2023-03-22T03:57:03.484Z,95871.38
2023-03-22T03:59:34.156Z,95863.72
2023-03-22T04:02:02.592Z,95859.84
2023-03-22T04:04:31.310Z,95863.22
2023-03-22T04:07:01.250Z,95858.59
2023-03-22T04:09:31.724Z,95865.72
2023-03-22T04:12:00.698Z,95857.59
2023-03-22T04:14:29.332Z,95867.78
2023-03-22T04:16:59.527Z,95860.03
2023-03-22T04:19:27.977Z,95860.13
2023-03-22T04:21:57.018Z,95865.16
2023-03-22T04:24:25.637Z,95870.81
2023-03-22T04:26:54.182Z,95871.66
2023-03-22T04:29:24.755Z,95866.53
2023-03-22T04:32:23.086Z,95870.63
2023-03-22T04:34:52.131Z,95867.38
2023-03-22T04:37:22.802Z,95856.44
2023-03-22T04:39:51.726Z,95863.28
2023-03-22T04:42:20.978Z,95868.38
2023-03-22T04:44:49.764Z,95870.13
2023-03-22T04:47:20.617Z,95864.22
2023-03-22T04:49:52.542Z,95873.47
2023-03-22T04:52:21.135Z,95867.59
2023-03-22T04:54:49.718Z,95875.13
2023-03-22T04:57:18.638Z,95880.13
2023-03-22T04:59:47.302Z,95881.84
2023-03-22T05:02:17.932Z,95887.88
2023-03-22T05:04:48.305Z,95875.03
2023-03-22T05:07:17.070Z,95876.63
2023-03-22T05:09:45.637Z,95875.72
2023-03-22T05:12:14.628Z,95891.81
2023-03-22T05:14:44.053Z,95884.09
2023-03-22T05:17:12.960Z,95894.31
2023-03-22T05:19:41.431Z,95892.66
2023-03-22T05:22:13.481Z,95894.38
2023-03-22T05:24:44.849Z,95900.19
2023-03-22T05:27:14.513Z,95896.50
2023-03-22T05:29:45.336Z,95892.84
2023-03-22T05:32:14.000Z,95896.66
2023-03-22T05:34:45.714Z,95894.94
2023-03-22T05:37:16.955Z,95895.06
2023-03-22T05:39:45.504Z,95899.09
2023-03-22T05:42:14.375Z,95901.13
2023-03-22T05:44:42.843Z,95906.47
2023-03-22T05:47:11.739Z,95900.97
2023-03-22T05:49:40.319Z,95909.69
2023-03-22T05:52:09.955Z,95909.34
2023-03-22T05:54:42.584Z,95914.03
2023-03-22T05:57:11.277Z,95918.69
2023-03-22T05:59:40.147Z,95915.47
2023-03-22T06:02:09.202Z,95913.03
2023-03-22T06:04:38.342Z,95914.09
2023-03-22T06:07:07.785Z,95917.59
2023-03-22T06:09:36.560Z,95903.56
2023-03-22T06:12:07.896Z,95907.16
2023-03-22T06:14:36.629Z,95900.72
2023-03-22T06:17:05.365Z,95903.38
2023-03-22T06:19:37.090Z,95905.81
2023-03-22T06:22:05.907Z,95902.69
2023-03-22T06:24:34.701Z,95906.50
2023-03-22T06:27:08.278Z,95896.66
2023-03-22T06:29:38.118Z,95904.78
2023-03-22T06:32:07.743Z,95906.97
2023-03-22T06:34:36.390Z,95906.47
2023-03-22T06:37:06.927Z,95904.41
2023-03-22T06:39:38.027Z,95896.03
2023-03-22T06:42:06.667Z,95909.84
2023-03-22T06:44:35.563Z,95909.53
2023-03-22T06:47:06.137Z,95907.88
2023-03-22T06:49:35.175Z,95910.94
2023-03-22T06:52:04.313Z,95914.66
2023-03-22T06:54:32.945Z,95905.66
2023-03-22T06:57:01.824Z,95909.69
2023-03-22T06:59:30.874Z,95907.06
2023-03-22T07:01:59.368Z,95906.78
2023-03-22T07:04:29.509Z,95888.75
2023-03-22T07:06:58.382Z,95902.88
2023-03-22T07:09:27.606Z,95907.09
2023-03-22T07:12:00.314Z,95901.31
2023-03-22T07:14:30.428Z,95903.66
2023-03-22T07:16:59.254Z,95902.47
2023-03-22T07:19:32.810Z,95905.97
2023-03-22T07:22:01.765Z,95900.13
2023-03-22T07:24:30.535Z,95900.09
2023-03-22T07:27:05.247Z,95904.09
2023-03-22T07:29:34.579Z,95902.59
2023-03-22T07:32:03.057Z,95901.53
2023-03-22T07:34:33.499Z,95903.56
2023-03-22T07:37:03.132Z,95903.84
2023-03-22T07:39:31.927Z,95896.28
2023-03-22T07:42:00.564Z,95895.03
2023-03-22T07:44:32.174Z,95891.53
2023-03-22T07:47:00.972Z,95890.69
2023-03-22T07:50:32.083Z,95893.28
2023-03-22T07:53:02.002Z,95887.19
2023-03-22T07:55:35.711Z,95892.34
2023-03-22T07:58:04.209Z,95894.78
2023-03-22T08:00:32.696Z,95893.13
2023-03-22T08:03:04.116Z,95890.94
2023-03-22T08:05:32.416Z,95903.63
2023-03-22T08:08:03.666Z,95906.78
2023-03-22T08:10:35.389Z,95907.31
2023-03-22T08:13:04.225Z,95898.16
2023-03-22T08:15:37.660Z,95893.25
2023-03-22T08:18:08.953Z,95895.28
2023-03-22T08:20:38.573Z,95898.19
2023-03-22T08:23:26.338Z,95901.84
2023-03-22T08:26:00.704Z,95894.00
2023-03-22T08:28:31.921Z,95893.09
2023-03-22T08:31:00.527Z,95889.44
2023-03-22T08:33:31.976Z,95893.31
2023-03-22T08:36:09.647Z,95898.25
2023-03-22T08:38:42.710Z,95899.03
2023-03-22T08:41:11.870Z,95896.88
2023-03-22T08:43:40.546Z,95893.88
2023-03-22T08:46:09.463Z,95893.94
2023-03-22T08:48:38.722Z,95894.03
2023-03-22T08:51:08.079Z,95891.13
2023-03-22T08:53:37.128Z,95886.16
2023-03-22T08:56:08.887Z,95879.00
2023-03-22T08:58:41.150Z,95880.16
2023-03-22T09:01:12.713Z,95876.22
2023-03-22T09:03:46.727Z,95879.78
2023-03-22T09:06:19.119Z,95880.91
2023-03-22T09:08:48.928Z,95885.72
2023-03-22T09:11:19.243Z,95880.28
2023-03-22T09:13:48.693Z,95875.69
2023-03-22T09:16:20.984Z,95885.28
2023-03-22T09:18:49.477Z,95876.06
2023-03-22T09:21:17.822Z,95864.88
2023-03-22T09:23:48.017Z,95861.69
2023-03-22T09:26:18.655Z,95872.69
2023-03-22T09:28:47.289Z,95861.41
2023-03-22T09:31:18.532Z,95852.31
2023-03-22T09:33:48.469Z,95851.94
2023-03-22T09:36:17.480Z,95851.53
2023-03-22T09:38:47.217Z,95845.06
2023-03-22T09:41:20.003Z,95850.19
2023-03-22T09:43:54.658Z,95851.53
2023-03-22T09:46:29.213Z,95841.09
2023-03-22T09:49:15.362Z,95842.31
2023-03-22T09:51:47.849Z,95838.28
2023-03-22T09:54:19.941Z,95845.13
2023-03-22T09:56:52.490Z,95839.06
2023-03-22T09:59:24.954Z,95836.28
2023-03-22T10:01:58.565Z,95833.53
2023-03-22T10:04:45.675Z,95833.09
2023-03-22T10:07:25.740Z,95839.22
2023-03-22T10:10:16.345Z,95830.69
2023-03-22T10:12:54.769Z,95824.34
2023-03-22T10:15:29.833Z,95824.28
2023-03-22T10:18:01.071Z,95822.34
2023-03-22T10:20:37.170Z,95827.00
2023-03-22T10:23:07.880Z,95812.66
2023-03-22T10:25:39.025Z,95809.53
2023-03-22T10:28:17.004Z,95816.94
2023-03-22T10:30:51.115Z,95812.16
2023-03-22T10:33:25.478Z,95815.53
2023-03-22T10:35:56.214Z,95811.41
2023-03-22T10:38:27.452Z,95805.28
2023-03-22T10:40:59.230Z,95801.53
2023-03-22T10:43:34.084Z,95800.38
2023-03-22T10:46:05.326Z,95796.66
2023-03-22T10:48:35.558Z,95796.72
2023-03-22T10:51:04.768Z,95794.66
2023-03-22T10:53:39.138Z,95797.81
2023-03-22T10:56:13.172Z,95800.69
2023-03-22T10:58:45.027Z,95795.44
2023-03-22T11:01:15.394Z,95791.50
2023-03-22T11:03:45.756Z,95793.44
2023-03-22T11:06:15.970Z,95791.16
2023-03-22T11:08:49.123Z,95786.94
2023-03-22T11:11:21.304Z,95787.13
2023-03-22T11:14:00.196Z,95785.91
2023-03-22T11:16:31.297Z,95781.78
2023-03-22T11:19:02.952Z,95789.09
2023-03-22T11:21:33.671Z,95780.66
2023-03-22T11:24:06.362Z,95783.25
2023-03-22T11:26:41.797Z,95772.19
2023-03-22T11:29:19.499Z,95768.31
2023-03-22T11:31:56.119Z,95764.66
2023-03-22T11:34:27.956Z,95771.25
2023-03-22T11:36:58.125Z,95771.09
2023-03-22T11:39:29.522Z,95764.06
2023-03-22T11:42:01.910Z,95769.69
2023-03-22T11:44:34.807Z,95774.06
2023-03-22T11:47:04.681Z,95765.38
2023-03-22T11:49:40.119Z,95764.25
2023-03-22T11:52:11.406Z,95759.16
2023-03-22T11:54:47.212Z,95764.03
2023-03-22T11:57:23.126Z,95767.88
2023-03-22T11:59:57.428Z,95765.47
2023-03-22T12:02:34.174Z,95759.03
2023-03-22T12:05:10.533Z,95761.25
2023-03-22T12:07:40.289Z,95752.56
2023-03-22T12:10:16.769Z,95754.41
2023-03-22T12:12:48.497Z,95757.22
2023-03-22T12:15:21.638Z,95752.41
2023-03-22T12:17:59.009Z,95741.34
2023-03-22T12:20:36.857Z,95736.69
2023-03-22T12:23:14.436Z,95748.34
2023-03-22T12:25:45.027Z,95745.94
2023-03-22T12:28:17.405Z,95738.75
2023-03-22T12:30:49.808Z,95735.75
2023-03-22T12:33:22.399Z,95733.91
2023-03-22T12:35:53.151Z,95726.88
2023-03-22T12:38:29.848Z,95723.25
2023-03-22T12:41:00.349Z,95719.84
2023-03-22T12:43:48.782Z,95724.50
2023-03-22T12:46:25.841Z,95726.09
2023-03-22T12:48:57.462Z,95726.69
2023-03-22T12:51:26.696Z,95727.63
2023-03-22T12:53:56.971Z,95720.44
2023-03-22T12:56:28.473Z,95713.22
2023-03-22T12:59:31.580Z,95712.22
2023-03-22T13:02:05.744Z,95704.16
2023-03-22T13:04:51.147Z,95703.16
2023-03-22T13:07:41.337Z,95701.78
2023-03-22T13:10:48.850Z,95696.34
2023-03-22T13:13:20.935Z,95683.88
2023-03-22T13:16:01.427Z,95694.53
2023-03-22T13:18:39.321Z,95677.19
2023-03-22T13:21:16.905Z,95674.94
2023-03-22T13:23:57.207Z,95662.59
2023-03-22T13:26:37.831Z,95673.78
2023-03-22T13:29:12.666Z,95665.56
2023-03-22T13:31:44.762Z,95664.50
2023-03-22T13:34:19.297Z,95655.94
2023-03-22T13:36:54.036Z,95659.16
2023-03-22T13:39:25.506Z,95657.06
2023-03-22T13:42:18.221Z,95660.22
2023-03-22T13:44:47.576Z,95656.13
2023-03-22T13:47:37.676Z,95662.91
2023-03-22T13:50:14.275Z,95659.25
2023-03-22T13:52:44.755Z,95662.31
2023-03-22T13:55:38.013Z,95662.03
2023-03-22T13:58:11.661Z,95657.66
2023-03-22T14:00:44.863Z,95655.00
2023-03-22T14:03:18.091Z,95638.75
2023-03-22T14:05:48.567Z,95637.72
2023-03-22T14:08:23.419Z,95648.88
2023-03-22T14:10:54.692Z,95640.84
2023-03-22T14:13:32.628Z,95645.31
2023-03-22T14:16:06.040Z,95635.22
2023-03-22T14:18:36.596Z,95640.25
2023-03-22T14:21:08.553Z,95634.44
